Time,TemperatureF,DewpointF,PressureIn,WindDirection,WindDirectionDegrees,WindSpeedMPH,WindSpeedGustMPH,Humidity,HourlyPrecipIn,Conditions,Clouds,dailyrainin,SoftwareType,DateUTC
2013-08-19 00:01:00,55.9,52.3,30.10,NNW,337,0.0,0.0,88,0.00,,,0.00,WUHU21636XXSP,2013-08-19 04:01:00,
2013-08-19 00:06:00,55.9,52.3,30.10,NNW,337,0.0,0.0,88,0.00,,,0.00,WUHU21636XXSP,2013-08-19 04:06:00,
2013-08-19 00:11:00,56.1,52.5,30.10,NNW,337,0.0,0.0,88,0.00,,,0.00,WUHU21636XXSP,2013-08-19 04:11:00,
2013-08-19 00:16:00,56.1,52.5,30.10,NNW,337,0.0,0.0,88,0.00,,,0.00,WUHU21636XXSP,2013-08-19 04:16:00,
2013-08-19 00:21:00,55.9,52.3,30.10,NNW,337,0.0,0.0,88,0.00,,,0.00,WUHU21636XXSP,2013-08-19 04:21:00,
2013-08-19 00:26:00,55.9,52.3,30.10,NNW,337,0.0,0.0,88,0.00,,,0.00,WUHU21636XXSP,2013-08-19 04:26:00,
2013-08-19 00:31:00,55.9,52.3,30.10,NNW,337,0.0,0.0,88,0.00,,,0.00,WUHU21636XXSP,2013-08-19 04:31:00,
2013-08-19 00:36:00,55.9,52.3,30.10,NNW,337,0.0,0.0,88,0.00,,,0.00,WUHU21636XXSP,2013-08-19 04:36:00,
2013-08-19 00:41:00,55.9,52.3,30.10,NNW,337,0.0,0.0,88,0.00,,,0.00,WUHU21636XXSP,2013-08-19 04:41:00,
2013-08-19 00:46:00,56.1,52.5,30.10,NNW,337,0.0,0.0,88,0.00,,,0.00,WUHU21636XXSP,2013-08-19 04:46:00,
2013-08-19 00:51:00,55.9,52.3,30.10,NNW,337,0.0,0.0,88,0.00,,,0.00,WUHU21636XXSP,2013-08-19 04:51:00,
2013-08-19 00:56:00,55.8,52.2,30.10,NNW,337,0.0,0.0,88,0.00,,,0.00,WUHU21636XXSP,2013-08-19 04:56:00,
2013-08-19 01:01:00,55.8,52.2,30.10,NNW,337,0.0,0.0,89,0.00,,,0.00,WUHU21636XXSP,2013-08-19 05:01:00,
2013-08-19 01:06:00,55.8,52.2,30.10,NNW,337,0.0,6.9,88,0.00,,,0.00,WUHU21636XXSP,2013-08-19 05:06:00,
2013-08-19 01:11:00,55.2,51.6,30.10,NNW,337,0.0,6.9,88,0.00,,,0.00,WUHU21636XXSP,2013-08-19 05:11:00,
2013-08-19 01:16:00,55.0,51.4,30.10,NNW,337,0.0,0.0,88,0.00,,,0.00,WUHU21636XXSP,2013-08-19 05:16:00,
2013-08-19 01:21:00,55.0,51.4,30.10,NNW,337,0.0,0.0,88,0.00,,,0.00,WUHU21636XXSP,2013-08-19 05:21:00,
2013-08-19 01:26:00,55.0,51.4,30.10,NNW,337,0.0,0.0,88,0.00,,,0.00,WUHU21636XXSP,2013-08-19 05:26:00,
2013-08-19 01:31:00,54.7,51.1,30.10,NNW,337,0.0,0.0,88,0.00,,,0.00,WUHU21636XXSP,2013-08-19 05:31:00,
2013-08-19 01:36:00,55.0,51.8,30.11,NNW,337,0.0,0.0,89,0.00,,,0.00,WUHU21636XXSP,2013-08-19 05:36:00,
2013-08-19 01:41:00,55.2,52.0,30.10,NNW,337,0.0,0.0,89,0.00,,,0.00,WUHU21636XXSP,2013-08-19 05:41:00,
2013-08-19 01:46:00,55.2,52.0,30.11,NNW,337,0.0,0.0,89,0.00,,,0.00,WUHU21636XXSP,2013-08-19 05:46:00,
2013-08-19 01:51:00,54.9,51.6,30.10,NNW,337,0.0,0.0,89,0.00,,,0.00,WUHU21636XXSP,2013-08-19 05:51:00,
2013-08-19 01:56:00,54.7,51.4,30.10,NNW,337,0.0,0.0,89,0.00,,,0.00,WUHU21636XXSP,2013-08-19 05:56:00,
2013-08-19 02:01:00,54.7,51.4,30.10,NNW,337,0.0,0.0,89,0.00,,,0.00,WUHU21636XXSP,2013-08-19 06:01:00,
2013-08-19 02:06:00,55.0,51.8,30.10,NNW,337,0.0,0.0,89,0.00,,,0.00,WUHU21636XXSP,2013-08-19 06:06:00,
2013-08-19 02:11:00,55.0,51.8,30.10,NNW,337,0.0,0.0,89,0.00,,,0.00,WUHU21636XXSP,2013-08-19 06:11:00,
2013-08-19 02:16:00,55.0,51.8,30.10,NNW,337,0.0,0.0,89,0.00,,,0.00,WUHU21636XXSP,2013-08-19 06:16:00,
2013-08-19 02:21:00,55.0,51.8,30.10,NNW,337,0.0,0.0,89,0.00,,,0.00,WUHU21636XXSP,2013-08-19 06:21:00,
2013-08-19 02:26:00,55.0,51.8,30.09,NNW,337,0.0,0.0,89,0.00,,,0.00,WUHU21636XXSP,2013-08-19 06:26:00,
2013-08-19 02:31:00,55.0,51.8,30.09,NNW,337,0.0,0.0,89,0.00,,,0.00,WUHU21636XXSP,2013-08-19 06:31:00,
2013-08-19 02:36:00,54.7,51.4,30.09,NNW,337,0.0,0.0,89,0.00,,,0.00,WUHU21636XXSP,2013-08-19 06:36:00,
2013-08-19 02:41:00,54.7,51.4,30.09,NNW,337,0.0,0.0,89,0.00,,,0.00,WUHU21636XXSP,2013-08-19 06:41:00,
2013-08-19 02:46:00,54.7,51.4,30.08,NNW,337,0.0,0.0,89,0.00,,,0.00,WUHU21636XXSP,2013-08-19 06:46:00,
2013-08-19 02:51:00,54.7,51.4,30.08,NNW,337,0.0,0.0,89,0.00,,,0.00,WUHU21636XXSP,2013-08-19 06:51:00,
2013-08-19 02:56:00,54.7,51.4,30.09,NNW,337,0.0,0.0,89,0.00,,,0.00,WUHU21636XXSP,2013-08-19 06:56:00,
2013-08-19 03:01:00,54.7,51.4,30.09,NNW,337,0.0,0.0,89,0.00,,,0.00,WUHU21636XXSP,2013-08-19 07:01:00,
2013-08-19 03:06:00,54.5,51.3,30.08,NNW,337,0.0,0.0,89,0.00,,,0.00,WUHU21636XXSP,2013-08-19 07:06:00,
2013-08-19 03:11:00,54.5,51.3,30.08,NNW,337,0.0,0.0,89,0.00,,,0.00,WUHU21636XXSP,2013-08-19 07:11:00,
2013-08-19 03:16:00,54.5,51.3,30.08,NNW,337,0.0,0.0,89,0.00,,,0.00,WUHU21636XXSP,2013-08-19 07:16:00,
2013-08-19 03:21:00,54.3,50.7,30.09,NNW,337,0.0,0.0,88,0.00,,,0.00,WUHU21636XXSP,2013-08-19 07:21:00,
2013-08-19 03:26:00,54.1,50.7,30.08,NNW,337,0.0,0.0,88,0.00,,,0.00,WUHU21636XXSP,2013-08-19 07:26:00,
2013-08-19 03:31:00,54.1,50.7,30.09,NNW,337,0.0,0.0,88,0.00,,,0.00,WUHU21636XXSP,2013-08-19 07:31:00,
2013-08-19 03:36:00,54.1,50.7,30.08,NNW,337,0.0,0.0,88,0.00,,,0.00,WUHU21636XXSP,2013-08-19 07:36:00,
2013-08-19 03:41:00,54.3,50.7,30.08,NNW,337,0.0,0.0,88,0.00,,,0.00,WUHU21636XXSP,2013-08-19 07:41:00,
2013-08-19 03:46:00,54.7,51.1,30.08,NNW,337,0.0,0.0,88,0.00,,,0.00,WUHU21636XXSP,2013-08-19 07:46:00,
2013-08-19 03:51:00,54.7,51.1,30.08,NNW,337,0.0,0.0,88,0.00,,,0.00,WUHU21636XXSP,2013-08-19 07:51:00,
2013-08-19 03:56:00,54.9,50.9,30.08,NNW,337,0.0,0.0,87,0.00,,,0.00,WUHU21636XXSP,2013-08-19 07:56:00,
2013-08-19 04:01:00,55.0,51.1,30.08,NNW,337,0.0,0.0,87,0.00,,,0.00,WUHU21636XXSP,2013-08-19 08:01:00,
2013-08-19 04:06:00,54.9,50.9,30.08,NNW,337,0.0,0.0,87,0.00,,,0.00,WUHU21636XXSP,2013-08-19 08:06:00,
2013-08-19 04:11:00,54.5,50.5,30.08,NNW,337,0.0,0.0,87,0.00,,,0.00,WUHU21636XXSP,2013-08-19 08:11:00,
2013-08-19 04:16:00,54.3,50.5,30.08,NNW,337,0.0,0.0,87,0.00,,,0.00,WUHU21636XXSP,2013-08-19 08:16:00,
2013-08-19 04:21:00,55.0,51.1,30.08,NNW,337,0.0,0.0,87,0.00,,,0.00,WUHU21636XXSP,2013-08-19 08:21:00,
2013-08-19 04:26:00,55.2,51.3,30.08,NNW,337,0.0,0.0,87,0.00,,,0.00,WUHU21636XXSP,2013-08-19 08:26:00,
2013-08-19 04:31:00,55.8,51.8,30.08,NNW,337,0.0,0.0,87,0.00,,,0.00,WUHU21636XXSP,2013-08-19 08:31:00,
2013-08-19 04:36:00,56.1,51.8,30.08,NNW,337,0.0,15.4,86,0.00,,,0.00,WUHU21636XXSP,2013-08-19 08:36:00,
2013-08-19 04:41:00,56.1,51.8,30.08,NNW,337,0.0,15.4,86,0.00,,,0.00,WUHU21636XXSP,2013-08-19 08:41:00,
2013-08-19 04:46:00,56.1,51.8,30.08,NNW,337,0.0,0.0,85,0.00,,,0.00,WUHU21636XXSP,2013-08-19 08:46:00,
2013-08-19 04:51:00,56.3,51.8,30.08,NNW,337,0.0,0.0,85,0.00,,,0.00,WUHU21636XXSP,2013-08-19 08:51:00,
2013-08-19 04:56:00,56.3,51.8,30.07,NNW,337,0.0,0.0,85,0.00,,,0.00,WUHU21636XXSP,2013-08-19 08:56:00,
2013-08-19 05:01:00,56.1,51.6,30.08,NNW,337,0.0,0.0,85,0.00,,,0.00,WUHU21636XXSP,2013-08-19 09:01:00,
2013-08-19 05:06:00,56.1,51.6,30.08,NNW,337,0.0,0.0,85,0.00,,,0.00,WUHU21636XXSP,2013-08-19 09:06:00,
2013-08-19 05:11:00,56.3,51.8,30.08,NNW,337,0.0,0.0,85,0.00,,,0.00,WUHU21636XXSP,2013-08-19 09:11:00,
2013-08-19 05:16:00,56.1,51.3,30.08,NNW,337,0.4,0.4,84,0.00,,,0.00,WUHU21636XXSP,2013-08-19 09:16:00,
2013-08-19 05:21:00,55.9,51.1,30.08,NNW,337,0.0,0.4,84,0.00,,,0.00,WUHU21636XXSP,2013-08-19 09:21:00,
2013-08-19 05:26:00,55.8,50.9,30.07,NNW,337,0.0,0.4,84,0.00,,,0.00,WUHU21636XXSP,2013-08-19 09:26:00,
2013-08-19 05:31:00,55.9,51.4,30.07,NNW,337,0.0,0.0,85,0.00,,,0.00,WUHU21636XXSP,2013-08-19 09:31:00,
2013-08-19 05:36:00,55.9,51.4,30.07,NNW,337,0.0,0.0,85,0.00,,,0.00,WUHU21636XXSP,2013-08-19 09:36:00,
2013-08-19 05:41:00,55.9,51.4,30.07,NNW,337,0.0,0.0,85,0.00,,,0.00,WUHU21636XXSP,2013-08-19 09:41:00,
2013-08-19 05:46:00,55.9,51.4,30.07,NNW,337,0.0,0.0,85,0.00,,,0.00,WUHU21636XXSP,2013-08-19 09:46:00,
2013-08-19 05:51:00,55.9,51.4,30.07,NNW,337,0.0,0.0,85,0.00,,,0.00,WUHU21636XXSP,2013-08-19 09:51:00,
2013-08-19 05:56:00,56.1,51.6,30.07,NNW,337,0.0,0.0,85,0.00,,,0.00,WUHU21636XXSP,2013-08-19 09:56:00,
2013-08-19 06:01:00,56.1,51.6,30.07,NNW,337,0.0,0.0,85,0.00,,,0.00,WUHU21636XXSP,2013-08-19 10:01:00,
2013-08-19 06:06:00,56.1,51.6,30.07,NNW,337,0.0,0.0,85,0.00,,,0.00,WUHU21636XXSP,2013-08-19 10:06:00,
2013-08-19 06:11:00,55.9,51.4,30.08,NNW,337,0.0,15.4,85,0.00,,,0.00,WUHU21636XXSP,2013-08-19 10:11:00,
2013-08-19 06:16:00,55.9,51.4,30.07,NNW,337,0.0,15.4,85,0.00,,,0.00,WUHU21636XXSP,2013-08-19 10:16:00,
2013-08-19 06:21:00,56.1,51.6,30.07,NNW,337,0.0,0.0,85,0.00,,,0.00,WUHU21636XXSP,2013-08-19 10:21:00,
2013-08-19 06:26:00,56.1,51.6,30.07,NNW,337,0.0,0.0,85,0.00,,,0.00,WUHU21636XXSP,2013-08-19 10:26:00,
2013-08-19 06:31:00,56.1,51.6,30.08,NNW,337,0.0,0.0,85,0.00,,,0.00,WUHU21636XXSP,2013-08-19 10:31:00,
2013-08-19 06:36:00,56.3,51.8,30.07,NNW,337,0.0,0.0,85,0.00,,,0.00,WUHU21636XXSP,2013-08-19 10:36:00,
2013-08-19 06:41:00,56.5,52.0,30.07,NNW,337,0.0,0.0,85,0.00,,,0.00,WUHU21636XXSP,2013-08-19 10:41:00,
2013-08-19 06:46:00,56.7,52.2,30.08,NNW,337,0.0,0.0,84,0.00,,,0.00,WUHU21636XXSP,2013-08-19 10:46:00,
2013-08-19 06:51:00,56.8,52.0,30.08,NNW,337,0.0,0.0,84,0.00,,,0.00,WUHU21636XXSP,2013-08-19 10:51:00,
2013-08-19 06:56:00,56.8,52.0,30.08,NNW,337,0.0,0.0,84,0.00,,,0.00,WUHU21636XXSP,2013-08-19 10:56:00,
2013-08-19 07:01:00,56.8,52.0,30.08,NNW,337,0.0,0.0,84,0.00,,,0.00,WUHU21636XXSP,2013-08-19 11:01:00,
2013-08-19 07:06:00,56.8,52.0,30.08,NNW,337,0.0,0.0,84,0.00,,,0.00,WUHU21636XXSP,2013-08-19 11:06:00,
2013-08-19 07:11:00,57.0,52.2,30.08,NNW,337,0.0,0.0,84,0.00,,,0.00,WUHU21636XXSP,2013-08-19 11:11:00,
2013-08-19 07:16:00,57.2,52.3,30.08,NNW,337,0.0,0.0,84,0.00,,,0.00,WUHU21636XXSP,2013-08-19 11:16:00,
2013-08-19 07:21:00,57.4,52.5,30.08,NNW,337,0.0,0.0,84,0.00,,,0.00,WUHU21636XXSP,2013-08-19 11:21:00,
2013-08-19 07:26:00,57.7,52.9,30.08,NNW,337,0.0,1.7,84,0.00,,,0.00,WUHU21636XXSP,2013-08-19 11:26:00,
2013-08-19 07:31:00,57.7,52.9,30.08,NNW,337,0.0,1.7,83,0.00,,,0.00,WUHU21636XXSP,2013-08-19 11:31:00,
2013-08-19 07:36:00,58.1,52.9,30.08,NE,45,0.0,1.7,83,0.00,,,0.00,WUHU21636XXSP,2013-08-19 11:36:00,
2013-08-19 07:41:00,58.3,53.1,30.08,ENE,67,0.0,0.4,83,0.00,,,0.00,WUHU21636XXSP,2013-08-19 11:41:00,
2013-08-19 07:46:00,58.6,53.4,30.08,ENE,67,0.0,0.0,83,0.00,,,0.00,WUHU21636XXSP,2013-08-19 11:46:00,
2013-08-19 07:51:00,58.8,53.6,30.08,East,90,0.0,0.0,83,0.00,,,0.00,WUHU21636XXSP,2013-08-19 11:51:00,
2013-08-19 07:56:00,59.0,53.8,30.08,ESE,112,0.0,0.0,83,0.00,,,0.00,WUHU21636XXSP,2013-08-19 11:56:00,
2013-08-19 08:01:00,59.0,53.8,30.08,East,90,0.0,0.0,83,0.00,,,0.00,WUHU21636XXSP,2013-08-19 12:01:00,
2013-08-19 08:06:00,59.2,54.0,30.08,ESE,112,0.0,0.0,83,0.00,,,0.00,WUHU21636XXSP,2013-08-19 12:06:00,
2013-08-19 08:11:00,59.5,54.3,30.08,ESE,112,0.0,0.0,83,0.00,,,0.00,WUHU21636XXSP,2013-08-19 12:11:00,
2013-08-19 08:16:00,59.7,54.1,30.09,ESE,112,0.0,0.2,82,0.00,,,0.00,WUHU21636XXSP,2013-08-19 12:16:00,
2013-08-19 08:21:00,59.9,54.5,30.08,ESE,112,0.0,0.2,82,0.00,,,0.00,WUHU21636XXSP,2013-08-19 12:21:00,
2013-08-19 08:26:00,60.4,54.9,30.08,ESE,112,0.0,1.3,82,0.00,,,0.00,WUHU21636XXSP,2013-08-19 12:26:00,
2013-08-19 08:31:00,60.6,55.4,30.08,ESE,112,0.0,1.3,83,0.00,,,0.00,WUHU21636XXSP,2013-08-19 12:31:00,
2013-08-19 08:36:00,61.2,55.9,30.08,ESE,112,0.0,0.0,83,0.00,,,0.00,WUHU21636XXSP,2013-08-19 12:36:00,
2013-08-19 08:41:00,61.5,55.9,30.08,ESE,112,0.0,0.0,82,0.00,,,0.00,WUHU21636XXSP,2013-08-19 12:41:00,
2013-08-19 08:46:00,62.1,56.5,30.08,SE,135,0.0,0.8,82,0.00,,,0.00,WUHU21636XXSP,2013-08-19 12:46:00,
2013-08-19 08:51:00,62.4,56.7,30.08,South,180,0.0,3.1,82,0.00,,,0.00,WUHU21636XXSP,2013-08-19 12:51:00,
2013-08-19 08:56:00,63.1,57.0,30.08,SE,135,0.0,3.1,81,0.00,,,0.00,WUHU21636XXSP,2013-08-19 12:56:00,
2013-08-19 09:01:00,64.2,57.2,30.08,SSW,202,0.0,1.5,78,0.00,,,0.00,WUHU21636XXSP,2013-08-19 13:01:00,
2013-08-19 09:06:00,64.8,57.6,30.08,South,180,2.9,2.9,78,0.00,,,0.00,WUHU21636XXSP,2013-08-19 13:06:00,
2013-08-19 09:11:00,65.5,58.1,30.08,SSW,202,0.0,2.9,77,0.00,,,0.00,WUHU21636XXSP,2013-08-19 13:11:00,
2013-08-19 09:16:00,65.8,57.9,30.08,SW,225,0.0,2.9,77,0.00,,,0.00,WUHU21636XXSP,2013-08-19 13:16:00,
2013-08-19 09:21:00,66.4,58.5,30.08,South,180,0.0,3.5,76,0.00,,,0.00,WUHU21636XXSP,2013-08-19 13:21:00,
2013-08-19 09:26:00,66.9,58.6,30.08,South,180,0.8,4.0,75,0.00,,,0.00,WUHU21636XXSP,2013-08-19 13:26:00,
2013-08-19 09:31:00,67.6,59.7,30.07,SW,225,1.3,6.9,76,0.00,,,0.00,WUHU21636XXSP,2013-08-19 13:31:00,
2013-08-19 09:36:00,67.8,59.2,30.07,SW,225,0.0,6.9,74,0.00,,,0.00,WUHU21636XXSP,2013-08-19 13:36:00,
2013-08-19 09:41:00,68.5,59.9,30.07,SW,225,2.0,4.4,74,0.00,,,0.00,WUHU21636XXSP,2013-08-19 13:41:00,
2013-08-19 09:46:00,69.1,60.3,30.08,West,270,0.0,4.4,74,0.00,,,0.00,WUHU21636XXSP,2013-08-19 13:46:00,
2013-08-19 09:51:00,69.4,59.9,30.08,SSW,202,0.0,4.9,72,0.00,,,0.00,WUHU21636XXSP,2013-08-19 13:51:00,
2013-08-19 09:56:00,70.0,60.8,30.08,WSW,247,0.0,4.9,73,0.00,,,0.00,WUHU21636XXSP,2013-08-19 13:56:00,
2013-08-19 10:01:00,70.5,61.0,30.07,SSE,157,0.0,3.3,72,0.00,,,0.00,WUHU21636XXSP,2013-08-19 14:01:00,
2013-08-19 10:06:00,70.9,61.0,30.08,South,180,4.2,4.2,71,0.00,,,0.00,WUHU21636XXSP,2013-08-19 14:06:00,
2013-08-19 10:11:00,71.1,60.8,30.07,West,270,2.0,4.2,71,0.00,,,0.00,WUHU21636XXSP,2013-08-19 14:11:00,
2013-08-19 10:16:00,71.2,61.3,30.07,SSW,202,2.9,4.2,70,0.00,,,0.00,WUHU21636XXSP,2013-08-19 14:16:00,
2013-08-19 10:21:00,71.4,60.6,30.07,SSW,202,1.1,10.5,69,0.00,,,0.00,WUHU21636XXSP,2013-08-19 14:21:00,
2013-08-19 10:26:00,71.8,61.5,30.07,South,180,4.0,10.5,70,0.00,,,0.00,WUHU21636XXSP,2013-08-19 14:26:00,
2013-08-19 10:31:00,72.1,62.2,30.07,South,180,0.0,10.5,71,0.00,,,0.00,WUHU21636XXSP,2013-08-19 14:31:00,
2013-08-19 10:36:00,73.0,62.2,30.07,SSE,157,0.0,10.5,69,0.00,,,0.00,WUHU21636XXSP,2013-08-19 14:36:00,
2013-08-19 10:41:00,73.8,62.1,30.07,West,270,2.2,2.2,67,0.00,,,0.00,WUHU21636XXSP,2013-08-19 14:41:00,
2013-08-19 10:46:00,74.1,62.8,30.07,SW,225,0.0,2.2,68,0.00,,,0.00,WUHU21636XXSP,2013-08-19 14:46:00,
2013-08-19 10:51:00,74.5,62.8,30.07,SW,225,1.3,2.2,67,0.00,,,0.00,WUHU21636XXSP,2013-08-19 14:51:00,
2013-08-19 10:56:00,75.0,62.8,30.07,SW,225,0.0,1.3,66,0.00,,,0.00,WUHU21636XXSP,2013-08-19 14:56:00,
2013-08-19 11:01:00,75.6,62.8,30.07,SSW,202,0.0,2.0,65,0.00,,,0.00,WUHU21636XXSP,2013-08-19 15:01:00,
2013-08-19 11:06:00,75.4,63.1,30.08,South,180,4.9,4.9,66,0.00,,,0.00,WUHU21636XXSP,2013-08-19 15:06:00,
2013-08-19 11:11:00,75.7,63.0,30.08,SSW,202,3.3,4.9,65,0.00,,,0.00,WUHU21636XXSP,2013-08-19 15:11:00,
2013-08-19 11:16:00,75.9,63.7,30.08,WSW,247,3.1,3.3,66,0.00,,,0.00,WUHU21636XXSP,2013-08-19 15:16:00,
2013-08-19 11:21:00,76.3,63.1,30.08,SSW,202,6.5,23.5,64,0.00,,,0.00,WUHU21636XXSP,2013-08-19 15:21:00,
2013-08-19 11:26:00,76.8,64.0,30.08,WSW,247,0.0,23.5,64,0.00,,,0.00,WUHU21636XXSP,2013-08-19 15:26:00,
2013-08-19 11:31:00,77.7,63.5,30.08,West,270,0.0,11.8,63,0.00,,,0.00,WUHU21636XXSP,2013-08-19 15:31:00,
2013-08-19 11:36:00,78.1,63.9,30.08,NW,315,2.9,11.8,62,0.00,,,0.00,WUHU21636XXSP,2013-08-19 15:36:00,
2013-08-19 11:41:00,78.4,63.9,30.08,WSW,247,4.4,6.7,61,0.00,,,0.00,WUHU21636XXSP,2013-08-19 15:41:00,
2013-08-19 11:46:00,78.8,64.2,30.08,West,270,0.0,4.4,61,0.00,,,0.00,WUHU21636XXSP,2013-08-19 15:46:00,
2013-08-19 11:51:00,78.6,64.3,30.08,West,270,1.3,4.0,61,0.00,,,0.00,WUHU21636XXSP,2013-08-19 15:51:00,
2013-08-19 11:56:00,79.3,64.2,30.08,WNW,292,0.0,4.0,60,0.00,,,0.00,WUHU21636XXSP,2013-08-19 15:56:00,
2013-08-19 12:01:00,79.0,63.0,30.07,West,270,5.8,17.4,58,0.00,,,0.00,WUHU21636XXSP,2013-08-19 16:01:00,
2013-08-19 12:06:00,79.3,63.1,30.07,WNW,292,3.5,17.4,59,0.00,,,0.00,WUHU21636XXSP,2013-08-19 16:06:00,
2013-08-19 12:11:00,79.7,63.9,30.07,WSW,247,1.5,9.3,59,0.00,,,0.00,WUHU21636XXSP,2013-08-19 16:11:00,
2013-08-19 12:16:00,79.9,63.7,30.07,WSW,247,0.0,6.9,57,0.00,,,0.00,WUHU21636XXSP,2013-08-19 16:16:00,
2013-08-19 12:21:00,79.5,62.4,30.07,WSW,247,4.2,12.0,56,0.00,,,0.00,WUHU21636XXSP,2013-08-19 16:21:00,
2013-08-19 12:26:00,80.1,62.2,30.06,West,270,1.5,12.0,55,0.00,,,0.00,WUHU21636XXSP,2013-08-19 16:26:00,
2013-08-19 12:31:00,81.0,63.1,30.06,West,270,2.6,4.4,55,0.00,,,0.00,WUHU21636XXSP,2013-08-19 16:31:00,
2013-08-19 12:36:00,81.1,62.8,30.06,WSW,247,6.4,14.3,54,0.00,,,0.00,WUHU21636XXSP,2013-08-19 16:36:00,
2013-08-19 12:41:00,81.3,61.9,30.05,WSW,247,4.2,14.3,51,0.00,,,0.00,WUHU21636XXSP,2013-08-19 16:41:00,
2013-08-19 12:46:00,80.4,61.5,30.05,West,270,8.0,11.1,53,0.00,,,0.00,WUHU21636XXSP,2013-08-19 16:46:00,
2013-08-19 12:51:00,81.0,61.5,30.05,West,270,7.3,14.5,52,0.00,,,0.00,WUHU21636XXSP,2013-08-19 16:51:00,
2013-08-19 12:56:00,81.0,61.5,30.05,NNW,337,4.2,14.5,53,0.00,,,0.00,WUHU21636XXSP,2013-08-19 16:56:00,
2013-08-19 13:01:00,80.8,61.3,30.05,NW,315,2.2,12.5,54,0.00,,,0.00,WUHU21636XXSP,2013-08-19 17:01:00,
2013-08-19 13:06:00,80.8,62.6,30.04,West,270,0.0,11.1,54,0.00,,,0.00,WUHU21636XXSP,2013-08-19 17:06:00,
2013-08-19 13:11:00,81.3,60.3,30.04,South,180,4.2,8.0,49,0.00,,,0.00,WUHU21636XXSP,2013-08-19 17:11:00,
2013-08-19 13:16:00,81.5,61.5,30.04,SSE,157,3.8,8.0,51,0.00,,,0.00,WUHU21636XXSP,2013-08-19 17:16:00,
2013-08-19 13:21:00,81.1,60.6,30.03,West,270,3.8,4.2,50,0.00,,,0.00,WUHU21636XXSP,2013-08-19 17:21:00,
2013-08-19 13:26:00,80.8,61.3,30.03,WSW,247,5.1,12.3,52,0.00,,,0.00,WUHU21636XXSP,2013-08-19 17:26:00,
2013-08-19 13:31:00,81.7,63.3,30.03,WSW,247,0.0,12.3,54,0.00,,,0.00,WUHU21636XXSP,2013-08-19 17:31:00,
2013-08-19 13:36:00,81.7,61.7,30.04,WNW,292,7.3,12.5,51,0.00,,,0.00,WUHU21636XXSP,2013-08-19 17:36:00,
2013-08-19 13:41:00,81.3,60.8,30.04,WNW,292,2.4,13.4,52,0.00,,,0.00,WUHU21636XXSP,2013-08-19 17:41:00,
2013-08-19 13:46:00,81.5,61.0,30.03,WSW,247,2.0,13.4,50,0.00,,,0.00,WUHU21636XXSP,2013-08-19 17:46:00,
2013-08-19 13:51:00,81.7,61.7,30.03,WNW,292,7.3,11.8,51,0.00,,,0.00,WUHU21636XXSP,2013-08-19 17:51:00,
2013-08-19 13:56:00,81.7,61.7,30.03,WSW,247,5.8,29.0,51,0.00,,,0.00,WUHU21636XXSP,2013-08-19 17:56:00,
2013-08-19 14:01:00,81.9,62.4,30.03,WSW,247,4.9,31.3,52,0.00,,,0.00,WUHU21636XXSP,2013-08-19 18:01:00,
2013-08-19 14:06:00,82.2,62.6,30.03,West,270,2.9,31.3,52,0.00,,,0.00,WUHU21636XXSP,2013-08-19 18:06:00,
2013-08-19 14:11:00,82.0,61.5,30.03,NW,315,13.4,14.7,50,0.00,,,0.00,WUHU21636XXSP,2013-08-19 18:11:00,
2013-08-19 14:16:00,82.2,62.2,30.03,WNW,292,0.6,14.7,53,0.00,,,0.00,WUHU21636XXSP,2013-08-19 18:16:00,
2013-08-19 14:21:00,82.2,61.0,30.03,West,270,1.5,10.5,51,0.00,,,0.00,WUHU21636XXSP,2013-08-19 18:21:00,
2013-08-19 14:26:00,82.4,61.9,30.02,WSW,247,3.3,14.9,50,0.00,,,0.00,WUHU21636XXSP,2013-08-19 18:26:00,
2013-08-19 14:31:00,82.2,61.7,30.03,SSW,202,2.6,14.9,50,0.00,,,0.00,WUHU21636XXSP,2013-08-19 18:31:00,
2013-08-19 14:36:00,82.0,62.6,30.02,West,270,4.2,13.8,52,0.00,,,0.00,WUHU21636XXSP,2013-08-19 18:36:00,
2013-08-19 14:41:00,81.7,61.7,30.03,NW,315,4.6,17.2,49,0.00,,,0.00,WUHU21636XXSP,2013-08-19 18:41:00,
2013-08-19 14:46:00,81.3,60.8,30.03,West,270,7.1,17.2,50,0.00,,,0.00,WUHU21636XXSP,2013-08-19 18:46:00,
2013-08-19 14:51:00,81.5,61.0,30.02,SSW,202,3.5,13.6,59,0.00,,,0.00,WUHU21636XXSP,2013-08-19 18:51:00,
2013-08-19 14:56:00,81.7,60.6,30.02,SW,225,4.4,11.4,49,0.00,,,0.00,WUHU21636XXSP,2013-08-19 18:56:00,
2013-08-19 15:01:00,81.7,60.6,30.02,NW,315,11.1,19.4,49,0.00,,,0.00,WUHU21636XXSP,2013-08-19 19:01:00,
2013-08-19 15:06:00,81.7,61.2,30.02,West,270,6.2,20.5,50,0.00,,,0.00,WUHU21636XXSP,2013-08-19 19:06:00,
2013-08-19 15:11:00,81.9,59.5,30.01,NW,315,8.5,20.8,47,0.00,,,0.00,WUHU21636XXSP,2013-08-19 19:11:00,
2013-08-19 15:16:00,82.2,61.0,30.02,WSW,247,5.5,20.8,49,0.00,,,0.00,WUHU21636XXSP,2013-08-19 19:16:00,
2013-08-19 15:21:00,82.2,60.6,30.01,WSW,247,3.3,11.6,48,0.00,,,0.00,WUHU21636XXSP,2013-08-19 19:21:00,
2013-08-19 15:26:00,82.8,61.0,30.01,West,270,2.4,11.6,48,0.00,,,0.00,WUHU21636XXSP,2013-08-19 19:26:00,
2013-08-19 15:31:00,82.2,60.4,30.01,SW,225,2.4,16.5,48,0.00,,,0.00,WUHU21636XXSP,2013-08-19 19:31:00,
2013-08-19 15:36:00,82.0,60.3,30.01,WSW,247,4.6,16.5,48,0.00,,,0.00,WUHU21636XXSP,2013-08-19 19:36:00,
2013-08-19 15:41:00,81.9,60.6,30.01,SW,225,4.2,13.6,49,0.00,,,0.00,WUHU21636XXSP,2013-08-19 19:41:00,
2013-08-19 15:46:00,82.2,60.4,30.01,North,0,4.9,12.3,48,0.00,,,0.00,WUHU21636XXSP,2013-08-19 19:46:00,
2013-08-19 15:51:00,82.2,59.7,30.01,NNW,337,7.6,26.6,47,0.00,,,0.00,WUHU21636XXSP,2013-08-19 19:51:00,
2013-08-19 15:56:00,82.0,59.7,30.01,NW,315,5.8,26.6,48,0.00,,,0.00,WUHU21636XXSP,2013-08-19 19:56:00,
2013-08-19 16:01:00,82.2,60.4,30.01,WSW,247,2.9,14.5,48,0.00,,,0.00,WUHU21636XXSP,2013-08-19 20:01:00,
2013-08-19 16:06:00,82.6,61.3,30.01,West,270,4.9,15.2,49,0.00,,,0.00,WUHU21636XXSP,2013-08-19 20:06:00,
2013-08-19 16:11:00,82.9,61.2,30.01,West,270,1.7,15.2,47,0.00,,,0.00,WUHU21636XXSP,2013-08-19 20:11:00,
2013-08-19 16:16:00,82.9,61.2,30.01,West,270,2.9,11.1,48,0.00,,,0.00,WUHU21636XXSP,2013-08-19 20:16:00,
2013-08-19 16:21:00,82.9,60.4,30.01,West,270,7.3,12.0,47,0.00,,,0.00,WUHU21636XXSP,2013-08-19 20:21:00,
2013-08-19 16:26:00,82.9,60.4,30.01,WNW,292,6.9,13.6,47,0.00,,,0.00,WUHU21636XXSP,2013-08-19 20:26:00,
2013-08-19 16:31:00,82.9,60.4,30.01,NNW,337,11.1,17.2,47,0.00,,,0.00,WUHU21636XXSP,2013-08-19 20:31:00,
2013-08-19 16:36:00,82.9,60.6,30.01,WNW,292,5.3,17.2,48,0.00,,,0.00,WUHU21636XXSP,2013-08-19 20:36:00,
2013-08-19 16:41:00,83.1,60.6,30.01,WSW,247,4.6,14.0,47,0.00,,,0.00,WUHU21636XXSP,2013-08-19 20:41:00,
2013-08-19 16:46:00,82.9,59.2,30.01,NW,315,8.7,13.4,46,0.00,,,0.00,WUHU21636XXSP,2013-08-19 20:46:00,
2013-08-19 16:51:00,82.6,60.3,30.01,NNW,337,2.4,16.1,46,0.00,,,0.00,WUHU21636XXSP,2013-08-19 20:51:00,
2013-08-19 16:56:00,82.9,60.4,30.01,NW,315,3.8,16.1,47,0.00,,,0.00,WUHU21636XXSP,2013-08-19 20:56:00,
2013-08-19 17:01:00,83.5,60.4,30.01,WNW,292,5.8,26.1,46,0.00,,,0.00,WUHU21636XXSP,2013-08-19 21:01:00,
2013-08-19 17:06:00,90.1,59.9,30.01,WSW,247,4.2,26.1,46,0.00,,,0.00,WUHU21636XXSP,2013-08-19 21:06:00,
2013-08-19 17:11:00,83.1,60.6,30.01,WNW,292,3.3,9.3,47,0.00,,,0.00,WUHU21636XXSP,2013-08-19 21:11:00,
2013-08-19 17:16:00,83.1,60.6,30.01,West,270,3.3,9.3,47,0.00,,,0.00,WUHU21636XXSP,2013-08-19 21:16:00,
2013-08-19 17:21:00,82.9,61.7,30.01,NW,315,4.9,6.7,49,0.00,,,0.00,WUHU21636XXSP,2013-08-19 21:21:00,
2013-08-19 17:26:00,82.4,61.9,30.00,WNW,292,0.8,12.3,50,0.00,,,0.00,WUHU21636XXSP,2013-08-19 21:26:00,
2013-08-19 17:31:00,82.6,62.1,30.01,WSW,247,1.3,12.3,49,0.00,,,0.00,WUHU21636XXSP,2013-08-19 21:31:00,
2013-08-19 17:36:00,82.2,62.2,30.01,West,270,2.9,13.1,51,0.00,,,0.00,WUHU21636XXSP,2013-08-19 21:36:00,
2013-08-19 17:41:00,81.7,61.2,30.01,West,270,4.0,14.0,50,0.00,,,0.00,WUHU21636XXSP,2013-08-19 21:41:00,
2013-08-19 17:46:00,81.3,61.3,30.01,West,270,3.5,14.0,51,0.00,,,0.00,WUHU21636XXSP,2013-08-19 21:46:00,
2013-08-19 17:51:00,79.9,61.2,30.01,WNW,292,6.7,13.8,53,0.00,,,0.00,WUHU21636XXSP,2013-08-19 21:51:00,
2013-08-19 17:56:00,79.9,61.7,30.01,West,270,1.5,13.8,54,0.00,,,0.00,WUHU21636XXSP,2013-08-19 21:56:00,
2013-08-19 18:01:00,79.9,61.2,30.01,WNW,292,3.8,14.3,53,0.00,,,0.00,WUHU21636XXSP,2013-08-19 22:01:00,
2013-08-19 18:06:00,80.1,60.8,30.01,NNW,337,6.9,14.3,52,0.00,,,0.00,WUHU21636XXSP,2013-08-19 22:06:00,
2013-08-19 18:11:00,80.2,61.3,30.01,West,270,3.5,11.6,53,0.00,,,0.00,WUHU21636XXSP,2013-08-19 22:11:00,
2013-08-19 18:16:00,79.9,60.6,30.01,NW,315,15.2,15.6,52,0.00,,,0.00,WUHU21636XXSP,2013-08-19 22:16:00,
2013-08-19 18:21:00,79.7,61.0,30.01,WNW,292,2.6,15.6,53,0.00,,,0.00,WUHU21636XXSP,2013-08-19 22:21:00,
2013-08-19 18:26:00,79.7,61.0,30.01,NNW,337,7.3,10.2,53,0.00,,,0.00,WUHU21636XXSP,2013-08-19 22:26:00,
2013-08-19 18:31:00,79.5,60.8,30.01,West,270,4.4,8.5,53,0.00,,,0.00,WUHU21636XXSP,2013-08-19 22:31:00,
2013-08-19 18:36:00,79.0,60.8,30.01,WNW,292,3.5,14.5,55,0.00,,,0.00,WUHU21636XXSP,2013-08-19 22:36:00,
2013-08-19 18:41:00,79.0,61.3,30.01,WSW,247,1.7,14.5,55,0.00,,,0.00,WUHU21636XXSP,2013-08-19 22:41:00,
2013-08-19 18:46:00,79.0,60.8,30.01,West,270,4.2,9.6,54,0.00,,,0.00,WUHU21636XXSP,2013-08-19 22:46:00,
2013-08-19 18:51:00,78.6,60.4,30.01,West,270,4.6,11.8,54,0.00,,,0.00,WUHU21636XXSP,2013-08-19 22:51:00,
2013-08-19 18:56:00,78.6,61.0,30.01,West,270,2.6,11.8,55,0.00,,,0.00,WUHU21636XXSP,2013-08-19 22:56:00,
2013-08-19 19:01:00,78.4,60.8,30.01,NW,315,2.3,6.9,54,0.00,,,0.00,WUHU21636XXSP,2013-08-19 23:01:00,
2013-08-19 19:06:00,78.4,60.3,30.01,West,270,0.0,2.6,54,0.00,,,0.00,WUHU21636XXSP,2013-08-19 23:06:00,
2013-08-19 19:11:00,78.4,60.3,30.01,WNW,292,1.3,2.2,54,0.00,,,0.00,WUHU21636XXSP,2013-08-19 23:11:00,
2013-08-19 19:16:00,78.1,60.4,30.01,West,270,2.9,7.1,55,0.00,,,0.00,WUHU21636XXSP,2013-08-19 23:16:00,
2013-08-19 19:21:00,77.9,59.7,30.01,WSW,247,2.4,7.1,54,0.00,,,0.00,WUHU21636XXSP,2013-08-19 23:21:00,
2013-08-19 19:26:00,77.7,60.1,30.01,WNW,292,0.0,4.0,55,0.00,,,0.00,WUHU21636XXSP,2013-08-19 23:26:00,
2013-08-19 19:31:00,77.5,59.9,30.00,SW,225,3.1,3.1,55,0.00,,,0.00,WUHU21636XXSP,2013-08-19 23:31:00,
2013-08-19 19:36:00,77.5,59.9,30.00,SW,225,0.0,3.1,55,0.00,,,0.00,WUHU21636XXSP,2013-08-19 23:36:00,
2013-08-19 19:41:00,77.2,59.5,30.00,West,270,1.5,3.1,55,0.00,,,0.00,WUHU21636XXSP,2013-08-19 23:41:00,
2013-08-19 19:46:00,77.2,59.5,30.00,West,270,0.0,1.5,56,0.00,,,0.00,WUHU21636XXSP,2013-08-19 23:46:00,
2013-08-19 19:51:00,76.8,59.7,30.00,West,270,0.0,1.5,56,0.00,,,0.00,WUHU21636XXSP,2013-08-19 23:51:00,
2013-08-19 19:56:00,76.6,59.7,30.00,West,270,0.0,0.0,56,0.00,,,0.00,WUHU21636XXSP,2013-08-19 23:56:00,
2013-08-19 20:01:00,76.3,59.9,30.00,West,270,0.0,0.4,57,0.00,,,0.00,WUHU21636XXSP,2013-08-20 00:01:00,
2013-08-19 20:06:00,75.9,59.5,30.00,West,270,0.0,0.4,57,0.00,,,0.00,WUHU21636XXSP,2013-08-20 00:06:00,
2013-08-19 20:11:00,75.7,59.4,30.00,West,270,0.0,0.0,57,0.00,,,0.00,WUHU21636XXSP,2013-08-20 00:11:00,
2013-08-19 20:16:00,75.4,59.5,30.00,West,270,0.0,0.0,58,0.00,,,0.00,WUHU21636XXSP,2013-08-20 00:16:00,
2013-08-19 20:21:00,74.8,59.0,30.00,West,270,0.0,0.0,58,0.00,,,0.00,WUHU21636XXSP,2013-08-20 00:21:00,
2013-08-19 20:26:00,74.5,58.6,30.00,West,270,0.0,0.0,58,0.00,,,0.00,WUHU21636XXSP,2013-08-20 00:26:00,
2013-08-19 20:31:00,73.9,59.2,30.00,West,270,0.0,0.0,60,0.00,,,0.00,WUHU21636XXSP,2013-08-20 00:31:00,
2013-08-19 20:36:00,73.2,58.8,30.00,West,270,0.0,0.0,61,0.00,,,0.00,WUHU21636XXSP,2013-08-20 00:36:00,
2013-08-19 20:41:00,72.7,58.8,30.00,West,270,0.0,0.0,62,0.00,,,0.00,WUHU21636XXSP,2013-08-20 00:41:00,
2013-08-19 20:46:00,72.1,58.6,30.00,West,270,0.0,0.0,63,0.00,,,0.00,WUHU21636XXSP,2013-08-20 00:46:00,
2013-08-19 20:51:00,71.4,58.5,30.01,West,270,0.0,0.0,64,0.00,,,0.00,WUHU21636XXSP,2013-08-20 00:51:00,
2013-08-19 20:56:00,71.1,58.6,30.01,West,270,0.0,0.0,65,0.00,,,0.00,WUHU21636XXSP,2013-08-20 00:56:00,
2013-08-19 21:01:00,70.5,58.1,30.01,West,270,0.0,0.0,65,0.00,,,0.00,WUHU21636XXSP,2013-08-20 01:01:00,
2013-08-19 21:06:00,70.2,58.1,30.01,West,270,0.0,0.0,66,0.00,,,0.00,WUHU21636XXSP,2013-08-20 01:06:00,
2013-08-19 21:11:00,70.0,57.9,30.01,West,270,0.0,0.0,66,0.00,,,0.00,WUHU21636XXSP,2013-08-20 01:11:00,
2013-08-19 21:16:00,69.4,57.9,30.01,West,270,0.0,0.0,67,0.00,,,0.00,WUHU21636XXSP,2013-08-20 01:16:00,
2013-08-19 21:21:00,68.9,57.7,30.01,West,270,0.0,0.0,68,0.00,,,0.00,WUHU21636XXSP,2013-08-20 01:21:00,
2013-08-19 21:26:00,68.7,57.6,30.01,West,270,0.0,7.1,68,0.00,,,0.00,WUHU21636XXSP,2013-08-20 01:26:00,
2013-08-19 21:31:00,68.5,57.9,30.01,West,270,0.0,7.1,69,0.00,,,0.00,WUHU21636XXSP,2013-08-20 01:31:00,
2013-08-19 21:36:00,68.4,58.1,30.01,West,270,0.0,0.0,70,0.00,,,0.00,WUHU21636XXSP,2013-08-20 01:36:00,
2013-08-19 21:41:00,68.2,57.9,30.01,West,270,0.0,0.0,70,0.00,,,0.00,WUHU21636XXSP,2013-08-20 01:41:00,
2013-08-19 21:46:00,68.2,57.9,30.01,West,270,0.0,0.0,71,0.00,,,0.00,WUHU21636XXSP,2013-08-20 01:46:00,
2013-08-19 21:51:00,68.2,57.9,30.01,West,270,0.0,0.0,71,0.00,,,0.00,WUHU21636XXSP,2013-08-20 01:51:00,
2013-08-19 21:56:00,67.8,58.5,30.01,West,270,0.0,0.0,72,0.00,,,0.00,WUHU21636XXSP,2013-08-20 01:56:00,
2013-08-19 22:01:00,67.8,58.5,30.01,West,270,0.0,0.0,72,0.00,,,0.00,WUHU21636XXSP,2013-08-20 02:01:00,
2013-08-19 22:06:00,67.6,58.3,30.01,West,270,0.0,0.0,72,0.00,,,0.00,WUHU21636XXSP,2013-08-20 02:06:00,
2013-08-19 22:11:00,67.6,58.3,30.01,West,270,0.0,0.0,73,0.00,,,0.00,WUHU21636XXSP,2013-08-20 02:11:00,
2013-08-19 22:16:00,67.5,58.5,30.01,West,270,0.0,0.0,73,0.00,,,0.00,WUHU21636XXSP,2013-08-20 02:16:00,
2013-08-19 22:21:00,67.3,58.3,30.01,West,270,0.0,0.0,74,0.00,,,0.00,WUHU21636XXSP,2013-08-20 02:21:00,
2013-08-19 22:26:00,67.3,58.3,30.01,West,270,0.0,0.0,74,0.00,,,0.00,WUHU21636XXSP,2013-08-20 02:26:00,
2013-08-19 22:31:00,67.3,58.3,30.01,West,270,0.0,0.0,73,0.00,,,0.00,WUHU21636XXSP,2013-08-20 02:31:00,
2013-08-19 22:36:00,67.3,58.3,30.01,West,270,0.0,0.0,73,0.00,,,0.00,WUHU21636XXSP,2013-08-20 02:36:00,
2013-08-19 22:41:00,67.3,58.3,30.01,West,270,0.0,0.0,73,0.00,,,0.00,WUHU21636XXSP,2013-08-20 02:41:00,
2013-08-19 22:46:00,67.3,58.3,30.01,West,270,0.0,0.0,73,0.00,,,0.00,WUHU21636XXSP,2013-08-20 02:46:00,
2013-08-19 22:51:00,67.1,58.5,30.01,West,270,0.0,0.0,74,0.00,,,0.00,WUHU21636XXSP,2013-08-20 02:51:00,
2013-08-19 22:56:00,66.9,58.3,30.01,WSW,247,0.0,0.0,74,0.00,,,0.00,WUHU21636XXSP,2013-08-20 02:56:00,
2013-08-19 23:01:00,66.9,58.3,30.01,West,270,0.0,0.0,74,0.00,,,0.00,WUHU21636XXSP,2013-08-20 03:01:00,
2013-08-19 23:06:00,66.9,58.3,30.01,WSW,247,0.0,0.0,74,0.00,,,0.00,WUHU21636XXSP,2013-08-20 03:06:00,
2013-08-19 23:11:00,66.9,58.3,30.01,WSW,247,0.0,0.0,74,0.00,,,0.00,WUHU21636XXSP,2013-08-20 03:11:00,
2013-08-19 23:16:00,66.9,58.3,30.01,WSW,247,0.0,0.0,74,0.00,,,0.00,WUHU21636XXSP,2013-08-20 03:16:00,
2013-08-19 23:21:00,66.9,58.3,30.01,WSW,247,0.0,0.0,74,0.00,,,0.00,WUHU21636XXSP,2013-08-20 03:21:00,
2013-08-19 23:26:00,66.9,58.3,30.01,WSW,247,0.0,0.0,75,0.00,,,0.00,WUHU21636XXSP,2013-08-20 03:26:00,
2013-08-19 23:31:00,66.9,58.3,30.01,WSW,247,0.0,0.0,75,0.00,,,0.00,WUHU21636XXSP,2013-08-20 03:31:00,
2013-08-19 23:36:00,66.9,58.3,30.01,SSW,202,0.0,0.0,75,0.00,,,0.00,WUHU21636XXSP,2013-08-20 03:36:00,
2013-08-19 23:41:00,66.9,58.3,30.01,SSW,202,0.0,0.0,75,0.00,,,0.00,WUHU21636XXSP,2013-08-20 03:41:00,
2013-08-19 23:47:00,66.9,58.3,30.01,SSW,202,0.0,0.0,75,0.00,,,0.00,WUHU21636XXSP,2013-08-20 03:47:00,
2013-08-19 23:52:00,67.1,58.8,30.01,SSW,202,0.0,0.0,75,0.00,,,0.00,WUHU21636XXSP,2013-08-20 03:52:00,
2013-08-19 23:57:00,67.1,58.8,30.01,SSW,202,0.0,0.6,75,0.00,,,0.00,WUHU21636XXSP,2013-08-20 03:57:00,